Pollard, Alabama
Current Conditions -  °F | °C
As of 7:53 PM on Sunday 25 Jan 2015 (Local Time) from KGZH Reporting Station
Clear Clear  
Wind Chill: 52°   Ceiling: Unl
Heat Index: 52°   Visibility: 10mi
Dew Point: 45°   Wind: 7mph
Humidity: 77%   Direction: 210°SSW
Pressure: 29.83"   Gusts: NA
Location:  31.1088°N, 87.2802°W
Report Text: KGZH 260153Z AUTO 21006KT 10SM CLR 11/07 A2983 RMK AO2 SLP100 T01110072
Loading
Personal Weather Stations






























Interactive Weather Map New forecast layout! Learn more

10-Day Weather Forecast

Advertisements
Track Severe Weather on mobile